sensor_id;sensor_type;location;lat;lon;timestamp;P1;durP1;ratioP1;P2;durP2;ratioP2
6195;SDS011;3131;42.630;23.382;2022-10-16T00:01:46;14.50;;;7.77;;
6195;SDS011;3131;42.630;23.382;2022-10-16T00:04:16;12.97;;;7.10;;
6195;SDS011;3131;42.630;23.382;2022-10-16T00:06:45;11.93;;;8.23;;
6195;SDS011;3131;42.630;23.382;2022-10-16T00:09:14;11.73;;;7.40;;
6195;SDS011;3131;42.630;23.382;2022-10-16T00:11:44;11.60;;;8.23;;
6195;SDS011;3131;42.630;23.382;2022-10-16T00:14:14;15.20;;;8.77;;
6195;SDS011;3131;42.630;23.382;2022-10-16T00:16:43;15.07;;;7.90;;
6195;SDS011;3131;42.630;23.382;2022-10-16T00:19:13;14.40;;;7.53;;
6195;SDS011;3131;42.630;23.382;2022-10-16T00:21:42;11.77;;;7.90;;
6195;SDS011;3131;42.630;23.382;2022-10-16T00:24:12;15.50;;;8.20;;
6195;SDS011;3131;42.630;23.382;2022-10-16T00:26:41;13.43;;;7.87;;
6195;SDS011;3131;42.630;23.382;2022-10-16T00:29:10;12.90;;;8.87;;
6195;SDS011;3131;42.630;23.382;2022-10-16T00:31:40;17.43;;;8.93;;
6195;SDS011;3131;42.630;23.382;2022-10-16T00:34:09;12.73;;;7.27;;
6195;SDS011;3131;42.630;23.382;2022-10-16T00:36:38;12.80;;;8.17;;
6195;SDS011;3131;42.630;23.382;2022-10-16T00:39:08;13.57;;;8.50;;
6195;SDS011;3131;42.630;23.382;2022-10-16T00:41:37;16.67;;;9.47;;
6195;SDS011;3131;42.630;23.382;2022-10-16T00:47:11;12.77;;;7.90;;
6195;SDS011;3131;42.630;23.382;2022-10-16T00:49:44;15.30;;;7.70;;
6195;SDS011;3131;42.630;23.382;2022-10-16T00:52:15;12.37;;;6.20;;
6195;SDS011;3131;42.630;23.382;2022-10-16T00:54:45;13.23;;;6.07;;
6195;SDS011;3131;42.630;23.382;2022-10-16T00:57:16;8.00;;;5.57;;
6195;SDS011;3131;42.630;23.382;2022-10-16T00:59:46;12.23;;;6.20;;
6195;SDS011;3131;42.630;23.382;2022-10-16T01:02:16;12.60;;;7.47;;
6195;SDS011;3131;42.630;23.382;2022-10-16T01:04:46;9.90;;;6.50;;
6195;SDS011;3131;42.630;23.382;2022-10-16T01:07:23;12.40;;;7.23;;
6195;SDS011;3131;42.630;23.382;2022-10-16T01:10:00;17.83;;;9.47;;
6195;SDS011;3131;42.630;23.382;2022-10-16T01:12:40;10.77;;;6.27;;
6195;SDS011;3131;42.630;23.382;2022-10-16T01:15:13;7.53;;;5.47;;
6195;SDS011;3131;42.630;23.382;2022-10-16T01:17:46;6.63;;;5.00;;
6195;SDS011;3131;42.630;23.382;2022-10-16T01:20:20;7.70;;;5.37;;
6195;SDS011;3131;42.630;23.382;2022-10-16T01:23:06;13.07;;;6.30;;
6195;SDS011;3131;42.630;23.382;2022-10-16T01:25:52;9.23;;;5.47;;
6195;SDS011;3131;42.630;23.382;2022-10-16T01:28:27;8.07;;;4.23;;
6195;SDS011;3131;42.630;23.382;2022-10-16T01:30:58;6.73;;;3.97;;
6195;SDS011;3131;42.630;23.382;2022-10-16T01:33:30;5.83;;;3.60;;
6195;SDS011;3131;42.630;23.382;2022-10-16T01:36:03;5.93;;;4.33;;
6195;SDS011;3131;42.630;23.382;2022-10-16T01:38:37;15.03;;;6.10;;
6195;SDS011;3131;42.630;23.382;2022-10-16T01:41:08;10.30;;;5.37;;
6195;SDS011;3131;42.630;23.382;2022-10-16T01:43:40;8.33;;;5.03;;
6195;SDS011;3131;42.630;23.382;2022-10-16T01:46:12;7.03;;;5.43;;
6195;SDS011;3131;42.630;23.382;2022-10-16T01:48:43;12.43;;;5.23;;
6195;SDS011;3131;42.630;23.382;2022-10-16T01:51:13;11.10;;;5.97;;
6195;SDS011;3131;42.630;23.382;2022-10-16T01:53:46;5.97;;;4.53;;
6195;SDS011;3131;42.630;23.382;2022-10-16T01:56:17;6.50;;;4.80;;
6195;SDS011;3131;42.630;23.382;2022-10-16T01:58:49;6.70;;;4.30;;
6195;SDS011;3131;42.630;23.382;2022-10-16T02:01:22;4.17;;;2.93;;
6195;SDS011;3131;42.630;23.382;2022-10-16T02:03:54;4.83;;;4.13;;
6195;SDS011;3131;42.630;23.382;2022-10-16T02:06:25;6.33;;;3.10;;
6195;SDS011;3131;42.630;23.382;2022-10-16T02:08:55;6.90;;;3.53;;
6195;SDS011;3131;42.630;23.382;2022-10-16T02:11:26;2.10;;;1.90;;
6195;SDS011;3131;42.630;23.382;2022-10-16T02:13:57;3.77;;;2.70;;
6195;SDS011;3131;42.630;23.382;2022-10-16T02:16:33;4.37;;;3.13;;
6195;SDS011;3131;42.630;23.382;2022-10-16T02:19:03;3.67;;;3.23;;
6195;SDS011;3131;42.630;23.382;2022-10-16T02:21:35;6.50;;;5.00;;
6195;SDS011;3131;42.630;23.382;2022-10-16T02:24:08;6.57;;;4.63;;
6195;SDS011;3131;42.630;23.382;2022-10-16T02:26:40;7.63;;;4.53;;
6195;SDS011;3131;42.630;23.382;2022-10-16T02:29:12;7.90;;;5.23;;
6195;SDS011;3131;42.630;23.382;2022-10-16T02:31:45;7.77;;;5.07;;
6195;SDS011;3131;42.630;23.382;2022-10-16T02:34:17;9.97;;;5.30;;
6195;SDS011;3131;42.630;23.382;2022-10-16T02:36:49;7.33;;;5.33;;
6195;SDS011;3131;42.630;23.382;2022-10-16T02:39:20;7.60;;;5.20;;
6195;SDS011;3131;42.630;23.382;2022-10-16T02:41:49;9.50;;;4.57;;
6195;SDS011;3131;42.630;23.382;2022-10-16T02:44:18;7.63;;;4.87;;
6195;SDS011;3131;42.630;23.382;2022-10-16T02:46:48;7.07;;;4.87;;
6195;SDS011;3131;42.630;23.382;2022-10-16T02:49:17;7.43;;;4.57;;
6195;SDS011;3131;42.630;23.382;2022-10-16T02:51:47;11.70;;;6.53;;
6195;SDS011;3131;42.630;23.382;2022-10-16T02:54:16;5.37;;;4.17;;
6195;SDS011;3131;42.630;23.382;2022-10-16T02:56:46;9.50;;;5.60;;
6195;SDS011;3131;42.630;23.382;2022-10-16T02:59:15;8.27;;;5.97;;
6195;SDS011;3131;42.630;23.382;2022-10-16T03:01:45;9.60;;;6.10;;
6195;SDS011;3131;42.630;23.382;2022-10-16T03:04:14;11.37;;;5.97;;
6195;SDS011;3131;42.630;23.382;2022-10-16T03:06:44;10.83;;;6.53;;
6195;SDS011;3131;42.630;23.382;2022-10-16T03:09:13;8.47;;;6.07;;
6195;SDS011;3131;42.630;23.382;2022-10-16T03:11:42;13.53;;;6.33;;
6195;SDS011;3131;42.630;23.382;2022-10-16T03:14:12;11.60;;;6.47;;
6195;SDS011;3131;42.630;23.382;2022-10-16T03:16:41;10.67;;;7.27;;
6195;SDS011;3131;42.630;23.382;2022-10-16T03:19:11;12.03;;;6.50;;
6195;SDS011;3131;42.630;23.382;2022-10-16T03:21:40;9.53;;;6.43;;
6195;SDS011;3131;42.630;23.382;2022-10-16T03:24:09;11.07;;;7.23;;
6195;SDS011;3131;42.630;23.382;2022-10-16T03:26:39;11.97;;;6.33;;
6195;SDS011;3131;42.630;23.382;2022-10-16T03:29:09;10.70;;;7.13;;
6195;SDS011;3131;42.630;23.382;2022-10-16T03:31:38;11.67;;;7.00;;
6195;SDS011;3131;42.630;23.382;2022-10-16T03:34:08;11.17;;;7.73;;
6195;SDS011;3131;42.630;23.382;2022-10-16T03:36:37;10.77;;;7.37;;
6195;SDS011;3131;42.630;23.382;2022-10-16T03:39:06;11.67;;;7.10;;
6195;SDS011;3131;42.630;23.382;2022-10-16T03:41:36;10.30;;;6.67;;
6195;SDS011;3131;42.630;23.382;2022-10-16T03:44:05;13.03;;;6.63;;
6195;SDS011;3131;42.630;23.382;2022-10-16T03:46:35;9.93;;;6.27;;
6195;SDS011;3131;42.630;23.382;2022-10-16T03:49:04;9.63;;;6.07;;
6195;SDS011;3131;42.630;23.382;2022-10-16T03:51:33;11.77;;;7.30;;
6195;SDS011;3131;42.630;23.382;2022-10-16T03:54:03;15.67;;;7.07;;
6195;SDS011;3131;42.630;23.382;2022-10-16T03:56:32;10.70;;;7.33;;
6195;SDS011;3131;42.630;23.382;2022-10-16T03:59:02;12.27;;;7.10;;
6195;SDS011;3131;42.630;23.382;2022-10-16T04:01:31;11.73;;;7.30;;
6195;SDS011;3131;42.630;23.382;2022-10-16T04:04:01;11.57;;;7.60;;
6195;SDS011;3131;42.630;23.382;2022-10-16T04:06:30;10.10;;;7.57;;
6195;SDS011;3131;42.630;23.382;2022-10-16T04:08:59;12.50;;;7.37;;
6195;SDS011;3131;42.630;23.382;2022-10-16T04:11:28;10.73;;;7.37;;
6195;SDS011;3131;42.630;23.382;2022-10-16T04:13:58;11.77;;;7.47;;
6195;SDS011;3131;42.630;23.382;2022-10-16T04:16:28;13.87;;;7.27;;
6195;SDS011;3131;42.630;23.382;2022-10-16T04:18:57;12.70;;;7.90;;
6195;SDS011;3131;42.630;23.382;2022-10-16T04:21:26;10.10;;;6.00;;
6195;SDS011;3131;42.630;23.382;2022-10-16T04:23:55;10.47;;;6.63;;
6195;SDS011;3131;42.630;23.382;2022-10-16T04:26:25;9.93;;;6.07;;
6195;SDS011;3131;42.630;23.382;2022-10-16T04:28:54;11.57;;;6.30;;
6195;SDS011;3131;42.630;23.382;2022-10-16T04:31:24;12.20;;;6.73;;
6195;SDS011;3131;42.630;23.382;2022-10-16T04:33:53;9.00;;;6.13;;
6195;SDS011;3131;42.630;23.382;2022-10-16T04:36:22;14.33;;;7.77;;
6195;SDS011;3131;42.630;23.382;2022-10-16T04:38:52;7.97;;;5.93;;
6195;SDS011;3131;42.630;23.382;2022-10-16T04:41:21;10.93;;;6.70;;
6195;SDS011;3131;42.630;23.382;2022-10-16T04:43:51;8.97;;;6.73;;
6195;SDS011;3131;42.630;23.382;2022-10-16T04:46:20;10.37;;;6.70;;
6195;SDS011;3131;42.630;23.382;2022-10-16T04:48:49;17.57;;;7.80;;
6195;SDS011;3131;42.630;23.382;2022-10-16T04:51:19;11.40;;;7.67;;
6195;SDS011;3131;42.630;23.382;2022-10-16T04:53:49;10.60;;;6.77;;
6195;SDS011;3131;42.630;23.382;2022-10-16T04:56:35;13.13;;;7.20;;
6195;SDS011;3131;42.630;23.382;2022-10-16T04:59:08;10.07;;;6.83;;
6195;SDS011;3131;42.630;23.382;2022-10-16T05:01:38;9.10;;;6.40;;
6195;SDS011;3131;42.630;23.382;2022-10-16T05:04:07;7.43;;;5.83;;
6195;SDS011;3131;42.630;23.382;2022-10-16T05:06:37;12.67;;;6.20;;
6195;SDS011;3131;42.630;23.382;2022-10-16T05:09:07;9.10;;;5.43;;
6195;SDS011;3131;42.630;23.382;2022-10-16T05:11:37;12.20;;;6.43;;
6195;SDS011;3131;42.630;23.382;2022-10-16T05:14:06;9.27;;;6.17;;
6195;SDS011;3131;42.630;23.382;2022-10-16T05:16:35;11.43;;;7.13;;
6195;SDS011;3131;42.630;23.382;2022-10-16T05:19:05;16.40;;;7.50;;
6195;SDS011;3131;42.630;23.382;2022-10-16T05:21:35;8.30;;;5.47;;
6195;SDS011;3131;42.630;23.382;2022-10-16T05:24:04;4.77;;;3.70;;
6195;SDS011;3131;42.630;23.382;2022-10-16T05:26:33;6.93;;;4.43;;
6195;SDS011;3131;42.630;23.382;2022-10-16T05:29:03;13.93;;;5.63;;
6195;SDS011;3131;42.630;23.382;2022-10-16T05:31:32;12.37;;;7.63;;
6195;SDS011;3131;42.630;23.382;2022-10-16T05:34:19;13.07;;;7.63;;
6195;SDS011;3131;42.630;23.382;2022-10-16T05:36:48;10.83;;;6.27;;
6195;SDS011;3131;42.630;23.382;2022-10-16T05:39:17;11.07;;;6.23;;
6195;SDS011;3131;42.630;23.382;2022-10-16T05:41:49;8.67;;;6.03;;
6195;SDS011;3131;42.630;23.382;2022-10-16T05:44:18;5.63;;;3.27;;
6195;SDS011;3131;42.630;23.382;2022-10-16T05:46:48;13.77;;;6.60;;
6195;SDS011;3131;42.630;23.382;2022-10-16T05:49:17;9.43;;;6.43;;
6195;SDS011;3131;42.630;23.382;2022-10-16T05:51:46;8.07;;;5.80;;
6195;SDS011;3131;42.630;23.382;2022-10-16T05:54:15;10.97;;;6.70;;
6195;SDS011;3131;42.630;23.382;2022-10-16T05:56:45;13.10;;;6.27;;
6195;SDS011;3131;42.630;23.382;2022-10-16T05:59:14;9.47;;;6.27;;
6195;SDS011;3131;42.630;23.382;2022-10-16T06:01:43;11.93;;;6.53;;
6195;SDS011;3131;42.630;23.382;2022-10-16T06:04:13;9.97;;;6.57;;
6195;SDS011;3131;42.630;23.382;2022-10-16T06:06:42;14.20;;;6.87;;
6195;SDS011;3131;42.630;23.382;2022-10-16T06:09:11;15.90;;;7.93;;
6195;SDS011;3131;42.630;23.382;2022-10-16T06:11:41;13.00;;;6.70;;
6195;SDS011;3131;42.630;23.382;2022-10-16T06:14:10;13.93;;;7.10;;
6195;SDS011;3131;42.630;23.382;2022-10-16T06:16:39;9.90;;;6.07;;
6195;SDS011;3131;42.630;23.382;2022-10-16T06:19:09;9.53;;;6.63;;
6195;SDS011;3131;42.630;23.382;2022-10-16T06:21:38;11.80;;;6.67;;
6195;SDS011;3131;42.630;23.382;2022-10-16T06:24:07;12.03;;;6.77;;
6195;SDS011;3131;42.630;23.382;2022-10-16T06:26:37;12.20;;;6.40;;
6195;SDS011;3131;42.630;23.382;2022-10-16T06:29:07;8.90;;;6.80;;
6195;SDS011;3131;42.630;23.382;2022-10-16T06:31:37;8.40;;;5.80;;
6195;SDS011;3131;42.630;23.382;2022-10-16T06:34:08;11.90;;;6.33;;
6195;SDS011;3131;42.630;23.382;2022-10-16T06:36:38;15.50;;;6.77;;
6195;SDS011;3131;42.630;23.382;2022-10-16T06:39:09;15.57;;;6.30;;
6195;SDS011;3131;42.630;23.382;2022-10-16T06:41:38;18.27;;;6.73;;
6195;SDS011;3131;42.630;23.382;2022-10-16T06:44:08;18.77;;;9.43;;
6195;SDS011;3131;42.630;23.382;2022-10-16T06:46:37;9.30;;;6.17;;
6195;SDS011;3131;42.630;23.382;2022-10-16T06:49:07;8.63;;;5.60;;
6195;SDS011;3131;42.630;23.382;2022-10-16T06:51:36;9.80;;;6.00;;
6195;SDS011;3131;42.630;23.382;2022-10-16T06:54:07;20.90;;;10.60;;
6195;SDS011;3131;42.630;23.382;2022-10-16T06:56:36;18.00;;;7.77;;
6195;SDS011;3131;42.630;23.382;2022-10-16T06:59:06;16.00;;;7.50;;
6195;SDS011;3131;42.630;23.382;2022-10-16T07:01:35;14.17;;;7.87;;
6195;SDS011;3131;42.630;23.382;2022-10-16T07:04:04;16.43;;;9.00;;
6195;SDS011;3131;42.630;23.382;2022-10-16T07:06:34;18.67;;;9.07;;
6195;SDS011;3131;42.630;23.382;2022-10-16T07:09:04;17.10;;;10.40;;
6195;SDS011;3131;42.630;23.382;2022-10-16T07:11:36;14.07;;;8.87;;
6195;SDS011;3131;42.630;23.382;2022-10-16T07:14:09;23.30;;;9.67;;
6195;SDS011;3131;42.630;23.382;2022-10-16T07:16:43;23.37;;;10.87;;
6195;SDS011;3131;42.630;23.382;2022-10-16T07:19:13;15.90;;;9.00;;
6195;SDS011;3131;42.630;23.382;2022-10-16T07:21:44;16.63;;;9.27;;
6195;SDS011;3131;42.630;23.382;2022-10-16T07:24:13;24.60;;;10.00;;
6195;SDS011;3131;42.630;23.382;2022-10-16T07:26:44;15.80;;;8.87;;
6195;SDS011;3131;42.630;23.382;2022-10-16T07:29:15;20.33;;;8.77;;
6195;SDS011;3131;42.630;23.382;2022-10-16T07:31:46;16.37;;;8.80;;
6195;SDS011;3131;42.630;23.382;2022-10-16T07:34:17;14.87;;;9.00;;
6195;SDS011;3131;42.630;23.382;2022-10-16T07:36:48;16.90;;;8.90;;
6195;SDS011;3131;42.630;23.382;2022-10-16T07:39:18;17.37;;;9.63;;
6195;SDS011;3131;42.630;23.382;2022-10-16T07:41:48;17.83;;;9.57;;
6195;SDS011;3131;42.630;23.382;2022-10-16T07:44:17;18.47;;;8.90;;
6195;SDS011;3131;42.630;23.382;2022-10-16T07:46:46;16.40;;;8.27;;
6195;SDS011;3131;42.630;23.382;2022-10-16T07:49:16;20.53;;;8.27;;
6195;SDS011;3131;42.630;23.382;2022-10-16T07:51:45;16.33;;;8.60;;
6195;SDS011;3131;42.630;23.382;2022-10-16T07:54:15;17.37;;;7.67;;
6195;SDS011;3131;42.630;23.382;2022-10-16T07:56:44;17.63;;;7.97;;
6195;SDS011;3131;42.630;23.382;2022-10-16T07:59:14;17.43;;;7.40;;
6195;SDS011;3131;42.630;23.382;2022-10-16T08:01:43;18.63;;;7.43;;
6195;SDS011;3131;42.630;23.382;2022-10-16T08:04:13;16.87;;;7.07;;
6195;SDS011;3131;42.630;23.382;2022-10-16T08:06:42;14.77;;;7.90;;
6195;SDS011;3131;42.630;23.382;2022-10-16T08:09:12;9.63;;;6.50;;
6195;SDS011;3131;42.630;23.382;2022-10-16T08:11:41;13.80;;;6.73;;
6195;SDS011;3131;42.630;23.382;2022-10-16T08:14:11;13.27;;;6.70;;
6195;SDS011;3131;42.630;23.382;2022-10-16T08:16:57;15.03;;;7.23;;
6195;SDS011;3131;42.630;23.382;2022-10-16T08:19:28;13.80;;;6.70;;
6195;SDS011;3131;42.630;23.382;2022-10-16T08:21:59;12.07;;;6.87;;
6195;SDS011;3131;42.630;23.382;2022-10-16T08:24:28;7.13;;;5.13;;
6195;SDS011;3131;42.630;23.382;2022-10-16T08:26:58;12.17;;;6.13;;
6195;SDS011;3131;42.630;23.382;2022-10-16T08:29:28;9.50;;;6.10;;
6195;SDS011;3131;42.630;23.382;2022-10-16T08:31:57;9.63;;;5.03;;
6195;SDS011;3131;42.630;23.382;2022-10-16T08:34:27;11.53;;;5.83;;
6195;SDS011;3131;42.630;23.382;2022-10-16T08:36:56;12.37;;;5.37;;
6195;SDS011;3131;42.630;23.382;2022-10-16T08:39:26;12.47;;;5.87;;
6195;SDS011;3131;42.630;23.382;2022-10-16T08:42:03;7.80;;;5.47;;
6195;SDS011;3131;42.630;23.382;2022-10-16T08:44:39;8.93;;;4.90;;
6195;SDS011;3131;42.630;23.382;2022-10-16T08:47:18;8.93;;;4.30;;
6195;SDS011;3131;42.630;23.382;2022-10-16T08:49:53;9.60;;;4.63;;
6195;SDS011;3131;42.630;23.382;2022-10-16T08:52:28;7.73;;;3.93;;
6195;SDS011;3131;42.630;23.382;2022-10-16T08:54:58;13.93;;;3.97;;
6195;SDS011;3131;42.630;23.382;2022-10-16T08:57:28;19.93;;;4.90;;
6195;SDS011;3131;42.630;23.382;2022-10-16T08:59:59;7.07;;;4.50;;
6195;SDS011;3131;42.630;23.382;2022-10-16T09:02:31;12.23;;;4.00;;
6195;SDS011;3131;42.630;23.382;2022-10-16T09:05:17;5.20;;;3.63;;
6195;SDS011;3131;42.630;23.382;2022-10-16T09:07:54;4.73;;;3.37;;
6195;SDS011;3131;42.630;23.382;2022-10-16T09:10:31;6.43;;;3.60;;
6195;SDS011;3131;42.630;23.382;2022-10-16T09:13:07;5.97;;;4.23;;
6195;SDS011;3131;42.630;23.382;2022-10-16T09:15:40;4.80;;;3.90;;
6195;SDS011;3131;42.630;23.382;2022-10-16T09:18:12;7.97;;;4.20;;
6195;SDS011;3131;42.630;23.382;2022-10-16T09:20:48;6.70;;;4.23;;
6195;SDS011;3131;42.630;23.382;2022-10-16T09:23:34;5.30;;;3.50;;
6195;SDS011;3131;42.630;23.382;2022-10-16T09:26:04;7.80;;;4.20;;
6195;SDS011;3131;42.630;23.382;2022-10-16T09:28:37;15.37;;;4.53;;
6195;SDS011;3131;42.630;23.382;2022-10-16T09:31:08;5.67;;;4.07;;
6195;SDS011;3131;42.630;23.382;2022-10-16T09:33:43;4.40;;;3.20;;
6195;SDS011;3131;42.630;23.382;2022-10-16T09:36:14;4.57;;;2.90;;
6195;SDS011;3131;42.630;23.382;2022-10-16T09:38:44;8.77;;;4.03;;
6195;SDS011;3131;42.630;23.382;2022-10-16T09:41:17;6.33;;;3.90;;
6195;SDS011;3131;42.630;23.382;2022-10-16T09:43:53;7.07;;;4.20;;
6195;SDS011;3131;42.630;23.382;2022-10-16T09:46:27;6.90;;;3.57;;
6195;SDS011;3131;42.630;23.382;2022-10-16T09:48:59;7.47;;;3.70;;
6195;SDS011;3131;42.630;23.382;2022-10-16T09:51:30;4.83;;;3.30;;
6195;SDS011;3131;42.630;23.382;2022-10-16T09:54:02;5.57;;;3.23;;
6195;SDS011;3131;42.630;23.382;2022-10-16T09:56:41;6.30;;;3.57;;
6195;SDS011;3131;42.630;23.382;2022-10-16T09:59:12;11.90;;;3.80;;
6195;SDS011;3131;42.630;23.382;2022-10-16T10:01:44;6.90;;;4.13;;
6195;SDS011;3131;42.630;23.382;2022-10-16T10:04:14;5.50;;;3.30;;
6195;SDS011;3131;42.630;23.382;2022-10-16T10:06:45;10.00;;;5.10;;
6195;SDS011;3131;42.630;23.382;2022-10-16T10:09:20;7.13;;;4.60;;
6195;SDS011;3131;42.630;23.382;2022-10-16T10:11:52;5.30;;;3.67;;
6195;SDS011;3131;42.630;23.382;2022-10-16T10:14:23;10.97;;;4.27;;
6195;SDS011;3131;42.630;23.382;2022-10-16T10:20:15;8.43;;;4.87;;
6195;SDS011;3131;42.630;23.382;2022-10-16T10:22:47;13.77;;;4.47;;
6195;SDS011;3131;42.630;23.382;2022-10-16T10:25:21;4.93;;;3.67;;
6195;SDS011;3131;42.630;23.382;2022-10-16T10:27:59;12.80;;;4.47;;
6195;SDS011;3131;42.630;23.382;2022-10-16T10:30:57;5.67;;;4.00;;
6195;SDS011;3131;42.630;23.382;2022-10-16T10:33:33;5.83;;;3.80;;
6195;SDS011;3131;42.630;23.382;2022-10-16T10:36:08;6.00;;;3.40;;
6195;SDS011;3131;42.630;23.382;2022-10-16T10:38:45;8.90;;;3.90;;
6195;SDS011;3131;42.630;23.382;2022-10-16T10:41:22;6.33;;;3.47;;
6195;SDS011;3131;42.630;23.382;2022-10-16T10:44:15;4.77;;;3.73;;
6195;SDS011;3131;42.630;23.382;2022-10-16T10:47:04;6.03;;;3.47;;
6195;SDS011;3131;42.630;23.382;2022-10-16T10:49:38;6.33;;;3.57;;
6195;SDS011;3131;42.630;23.382;2022-10-16T10:55:09;7.00;;;3.43;;
6195;SDS011;3131;42.630;23.382;2022-10-16T10:57:43;7.70;;;3.53;;
6195;SDS011;3131;42.630;23.382;2022-10-16T11:00:18;8.77;;;3.57;;
6195;SDS011;3131;42.630;23.382;2022-10-16T11:02:52;4.80;;;3.30;;
6195;SDS011;3131;42.630;23.382;2022-10-16T11:05:27;3.27;;;2.97;;
6195;SDS011;3131;42.630;23.382;2022-10-16T11:08:13;5.57;;;2.97;;
6195;SDS011;3131;42.630;23.382;2022-10-16T11:10:45;4.73;;;2.90;;
6195;SDS011;3131;42.630;23.382;2022-10-16T11:13:20;5.47;;;2.77;;
6195;SDS011;3131;42.630;23.382;2022-10-16T11:16:00;6.60;;;3.10;;
6195;SDS011;3131;42.630;23.382;2022-10-16T11:18:36;2.93;;;2.60;;
6195;SDS011;3131;42.630;23.382;2022-10-16T11:21:08;4.20;;;2.80;;
6195;SDS011;3131;42.630;23.382;2022-10-16T11:23:41;3.27;;;2.50;;
6195;SDS011;3131;42.630;23.382;2022-10-16T11:26:18;6.67;;;2.30;;
6195;SDS011;3131;42.630;23.382;2022-10-16T11:28:46;4.37;;;2.90;;
6195;SDS011;3131;42.630;23.382;2022-10-16T11:31:19;3.03;;;2.57;;
6195;SDS011;3131;42.630;23.382;2022-10-16T11:33:54;4.23;;;2.67;;
6195;SDS011;3131;42.630;23.382;2022-10-16T11:36:25;6.63;;;2.93;;
6195;SDS011;3131;42.630;23.382;2022-10-16T11:38:58;3.07;;;2.20;;
6195;SDS011;3131;42.630;23.382;2022-10-16T11:41:32;4.10;;;2.50;;
6195;SDS011;3131;42.630;23.382;2022-10-16T11:44:14;7.30;;;2.53;;
6195;SDS011;3131;42.630;23.382;2022-10-16T11:46:50;4.73;;;2.97;;
6195;SDS011;3131;42.630;23.382;2022-10-16T11:49:37;4.53;;;2.87;;
6195;SDS011;3131;42.630;23.382;2022-10-16T11:52:11;3.03;;;2.47;;
6195;SDS011;3131;42.630;23.382;2022-10-16T11:54:44;5.00;;;2.83;;
6195;SDS011;3131;42.630;23.382;2022-10-16T11:57:17;11.23;;;3.00;;
6195;SDS011;3131;42.630;23.382;2022-10-16T12:00:04;7.10;;;2.47;;
6195;SDS011;3131;42.630;23.382;2022-10-16T12:02:37;5.30;;;2.50;;
6195;SDS011;3131;42.630;23.382;2022-10-16T12:05:14;3.33;;;2.10;;
6195;SDS011;3131;42.630;23.382;2022-10-16T12:07:48;5.43;;;2.73;;
6195;SDS011;3131;42.630;23.382;2022-10-16T12:10:21;3.03;;;2.10;;
6195;SDS011;3131;42.630;23.382;2022-10-16T12:12:51;2.83;;;2.00;;
6195;SDS011;3131;42.630;23.382;2022-10-16T12:15:24;3.55;;;2.20;;
6195;SDS011;3131;42.630;23.382;2022-10-16T12:17:54;6.77;;;2.70;;
6195;SDS011;3131;42.630;23.382;2022-10-16T12:20:26;3.67;;;2.35;;
6195;SDS011;3131;42.630;23.382;2022-10-16T12:22:59;7.03;;;2.62;;
6195;SDS011;3131;42.630;23.382;2022-10-16T12:25:31;3.60;;;2.40;;
6195;SDS011;3131;42.630;23.382;2022-10-16T12:28:02;2.73;;;2.03;;
6195;SDS011;3131;42.630;23.382;2022-10-16T12:30:34;3.73;;;2.37;;
6195;SDS011;3131;42.630;23.382;2022-10-16T12:33:05;3.87;;;2.40;;
6195;SDS011;3131;42.630;23.382;2022-10-16T12:35:42;6.03;;;2.33;;
6195;SDS011;3131;42.630;23.382;2022-10-16T12:38:18;2.73;;;2.10;;
6195;SDS011;3131;42.630;23.382;2022-10-16T12:40:55;3.73;;;2.63;;
6195;SDS011;3131;42.630;23.382;2022-10-16T12:43:34;5.73;;;2.70;;
6195;SDS011;3131;42.630;23.382;2022-10-16T12:46:20;4.23;;;2.50;;
6195;SDS011;3131;42.630;23.382;2022-10-16T12:48:51;5.47;;;2.70;;
6195;SDS011;3131;42.630;23.382;2022-10-16T12:51:24;4.03;;;2.40;;
6195;SDS011;3131;42.630;23.382;2022-10-16T12:54:01;3.03;;;2.37;;
6195;SDS011;3131;42.630;23.382;2022-10-16T12:56:36;5.63;;;2.53;;
6195;SDS011;3131;42.630;23.382;2022-10-16T12:59:12;3.77;;;2.20;;
6195;SDS011;3131;42.630;23.382;2022-10-16T13:01:51;9.07;;;2.93;;
6195;SDS011;3131;42.630;23.382;2022-10-16T13:07:31;3.63;;;2.23;;
6195;SDS011;3131;42.630;23.382;2022-10-16T13:10:09;10.63;;;2.47;;
6195;SDS011;3131;42.630;23.382;2022-10-16T13:12:51;4.60;;;2.77;;
6195;SDS011;3131;42.630;23.382;2022-10-16T13:15:31;7.43;;;2.60;;
6195;SDS011;3131;42.630;23.382;2022-10-16T13:18:24;4.43;;;2.50;;
6195;SDS011;3131;42.630;23.382;2022-10-16T13:20:59;10.13;;;3.30;;
6195;SDS011;3131;42.630;23.382;2022-10-16T13:23:36;6.07;;;2.70;;
6195;SDS011;3131;42.630;23.382;2022-10-16T13:26:09;10.93;;;3.33;;
6195;SDS011;3131;42.630;23.382;2022-10-16T13:28:42;8.67;;;2.90;;
6195;SDS011;3131;42.630;23.382;2022-10-16T13:31:13;3.98;;;2.70;;
6195;SDS011;3131;42.630;23.382;2022-10-16T13:33:46;3.83;;;2.72;;
6195;SDS011;3131;42.630;23.382;2022-10-16T13:36:20;4.90;;;2.47;;
6195;SDS011;3131;42.630;23.382;2022-10-16T13:38:59;10.50;;;2.30;;
6195;SDS011;3131;42.630;23.382;2022-10-16T13:41:32;6.73;;;2.67;;
6195;SDS011;3131;42.630;23.382;2022-10-16T13:44:01;5.43;;;2.83;;
6195;SDS011;3131;42.630;23.382;2022-10-16T13:46:31;3.33;;;2.83;;
6195;SDS011;3131;42.630;23.382;2022-10-16T13:49:02;4.10;;;2.70;;
6195;SDS011;3131;42.630;23.382;2022-10-16T13:51:32;7.60;;;3.40;;
6195;SDS011;3131;42.630;23.382;2022-10-16T13:54:01;7.67;;;2.73;;
6195;SDS011;3131;42.630;23.382;2022-10-16T13:56:32;5.13;;;3.90;;
6195;SDS011;3131;42.630;23.382;2022-10-16T13:59:02;6.80;;;2.93;;
6195;SDS011;3131;42.630;23.382;2022-10-16T14:01:43;4.53;;;2.70;;
6195;SDS011;3131;42.630;23.382;2022-10-16T14:04:13;5.43;;;2.83;;
6195;SDS011;3131;42.630;23.382;2022-10-16T14:06:43;3.07;;;2.37;;
6195;SDS011;3131;42.630;23.382;2022-10-16T14:09:17;5.73;;;2.93;;
6195;SDS011;3131;42.630;23.382;2022-10-16T14:11:49;6.33;;;2.27;;
6195;SDS011;3131;42.630;23.382;2022-10-16T14:14:21;7.40;;;2.50;;
6195;SDS011;3131;42.630;23.382;2022-10-16T14:16:52;5.37;;;2.27;;
6195;SDS011;3131;42.630;23.382;2022-10-16T14:19:22;5.57;;;2.83;;
6195;SDS011;3131;42.630;23.382;2022-10-16T14:21:54;4.67;;;2.60;;
6195;SDS011;3131;42.630;23.382;2022-10-16T14:24:26;5.47;;;3.27;;
6195;SDS011;3131;42.630;23.382;2022-10-16T14:26:57;7.17;;;2.90;;
6195;SDS011;3131;42.630;23.382;2022-10-16T14:29:27;5.33;;;2.83;;
6195;SDS011;3131;42.630;23.382;2022-10-16T14:31:58;4.07;;;2.70;;
6195;SDS011;3131;42.630;23.382;2022-10-16T14:34:30;6.87;;;2.97;;
6195;SDS011;3131;42.630;23.382;2022-10-16T14:37:00;5.77;;;2.50;;
6195;SDS011;3131;42.630;23.382;2022-10-16T14:39:33;8.67;;;3.10;;
6195;SDS011;3131;42.630;23.382;2022-10-16T14:42:03;7.37;;;3.07;;
6195;SDS011;3131;42.630;23.382;2022-10-16T14:44:34;6.53;;;2.77;;
6195;SDS011;3131;42.630;23.382;2022-10-16T14:47:09;6.30;;;2.90;;
6195;SDS011;3131;42.630;23.382;2022-10-16T14:49:58;3.50;;;2.63;;
6195;SDS011;3131;42.630;23.382;2022-10-16T14:52:27;5.10;;;2.70;;
6195;SDS011;3131;42.630;23.382;2022-10-16T14:54:56;8.57;;;3.53;;
6195;SDS011;3131;42.630;23.382;2022-10-16T14:57:26;6.43;;;3.13;;
6195;SDS011;3131;42.630;23.382;2022-10-16T14:59:57;5.50;;;2.33;;
6195;SDS011;3131;42.630;23.382;2022-10-16T15:02:28;5.70;;;3.20;;
6195;SDS011;3131;42.630;23.382;2022-10-16T15:04:59;8.70;;;3.27;;
6195;SDS011;3131;42.630;23.382;2022-10-16T15:07:45;5.87;;;2.83;;
6195;SDS011;3131;42.630;23.382;2022-10-16T15:10:16;9.97;;;3.63;;
6195;SDS011;3131;42.630;23.382;2022-10-16T15:12:45;14.07;;;3.10;;
6195;SDS011;3131;42.630;23.382;2022-10-16T15:15:26;74.33;;;45.53;;
6195;SDS011;3131;42.630;23.382;2022-10-16T15:18:00;39.67;;;24.40;;
6195;SDS011;3131;42.630;23.382;2022-10-16T15:20:30;8.10;;;4.20;;
6195;SDS011;3131;42.630;23.382;2022-10-16T15:23:01;7.20;;;3.77;;
6195;SDS011;3131;42.630;23.382;2022-10-16T15:25:34;10.23;;;4.03;;
6195;SDS011;3131;42.630;23.382;2022-10-16T15:28:05;6.23;;;3.73;;
6195;SDS011;3131;42.630;23.382;2022-10-16T15:30:35;13.60;;;3.77;;
6195;SDS011;3131;42.630;23.382;2022-10-16T15:33:08;10.90;;;3.70;;
6195;SDS011;3131;42.630;23.382;2022-10-16T15:35:40;19.40;;;4.07;;
6195;SDS011;3131;42.630;23.382;2022-10-16T15:38:11;10.40;;;3.70;;